createdAt,value
2023-04-15T00:00:40.350Z,23.01
2023-04-15T00:03:41.511Z,22.48
2023-04-15T00:06:42.365Z,23.65
2023-04-15T00:09:43.354Z,23.44
2023-04-15T00:12:37.386Z,23.94
2023-04-15T00:15:38.361Z,23.51
2023-04-15T00:18:39.383Z,23.88
2023-04-15T00:21:40.350Z,23.99
2023-04-15T00:24:41.376Z,23.64
2023-04-15T00:27:35.359Z,23.37
2023-04-15T00:30:36.503Z,23.15
2023-04-15T00:33:38.357Z,22.89
2023-04-15T00:36:40.352Z,22.82
2023-04-15T00:39:41.365Z,23.41
2023-04-15T00:42:42.371Z,22.34
2023-04-15T00:45:43.460Z,23.35
2023-04-15T00:48:45.352Z,23.05
2023-04-15T00:51:46.373Z,23.30
2023-04-15T00:54:47.387Z,23.35
2023-04-15T00:58:06.508Z,23.12
2023-04-15T01:00:56.616Z,22.75
2023-04-15T01:03:57.439Z,22.99
2023-04-15T01:06:58.401Z,22.80
2023-04-15T01:09:59.325Z,23.15
2023-04-15T01:13:00.362Z,23.21
2023-04-15T01:16:01.336Z,23.06
2023-04-15T01:19:02.628Z,23.10
2023-04-15T01:22:03.336Z,23.00
2023-04-15T01:25:13.377Z,23.21
2023-04-15T01:28:14.313Z,22.85
2023-04-15T01:31:22.539Z,23.15
2023-04-15T01:34:42.337Z,22.39
2023-04-15T01:38:03.394Z,22.29
2023-04-15T01:41:06.314Z,22.69
2023-04-15T01:44:08.417Z,22.98
2023-04-15T01:47:10.316Z,22.52
2023-04-15T01:50:12.362Z,22.41
2023-04-15T01:53:14.341Z,23.22
2023-04-15T01:56:16.979Z,22.50
2023-04-15T01:59:18.335Z,23.25
2023-04-15T02:02:20.582Z,23.12
2023-04-15T02:05:24.331Z,22.97
2023-04-15T02:08:26.333Z,22.89
2023-04-15T02:11:28.344Z,22.65
2023-04-15T02:14:32.386Z,22.30
2023-04-15T02:17:34.361Z,23.01
2023-04-15T02:20:37.359Z,23.21
2023-04-15T02:23:39.337Z,23.21
2023-04-15T02:26:41.355Z,23.64
2023-04-15T02:30:01.762Z,23.73
2023-04-15T02:32:51.396Z,23.50
2023-04-15T02:35:53.347Z,22.45
2023-04-15T02:38:56.368Z,22.75
2023-04-15T02:41:59.356Z,22.74
2023-04-15T02:45:01.362Z,22.45
2023-04-15T02:48:03.314Z,23.08
2023-04-15T02:51:05.445Z,22.23
2023-04-15T02:54:08.531Z,23.48
2023-04-15T02:57:12.370Z,23.27
2023-04-15T03:00:16.319Z,23.70
2023-04-15T03:03:19.637Z,23.71
2023-04-15T03:06:22.304Z,24.12
2023-04-15T03:09:24.367Z,22.05
2023-04-15T03:12:27.317Z,22.98
2023-04-15T03:15:29.429Z,24.09
2023-04-15T03:18:31.366Z,23.06
2023-04-15T03:21:33.366Z,22.88
2023-04-15T03:24:36.322Z,23.64
2023-04-15T03:27:39.369Z,23.64
2023-04-15T03:30:41.314Z,23.13
2023-04-15T03:33:43.374Z,23.17
2023-04-15T03:36:45.317Z,23.16
2023-04-15T03:39:47.350Z,22.97
2023-04-15T03:42:49.328Z,23.50
2023-04-15T03:45:52.387Z,23.05
2023-04-15T03:48:54.326Z,23.16
2023-04-15T03:51:56.370Z,23.56
2023-04-15T03:54:58.435Z,23.42
2023-04-15T03:58:00.356Z,23.27
2023-04-15T04:01:02.325Z,22.85
2023-04-15T04:04:04.724Z,22.62
2023-04-15T04:07:06.316Z,23.32
2023-04-15T04:10:08.359Z,22.08
2023-04-15T04:13:10.347Z,23.48
2023-04-15T04:16:12.467Z,22.68
2023-04-15T04:19:14.292Z,23.55
2023-04-15T04:22:16.364Z,22.99
2023-04-15T04:25:18.326Z,22.99
2023-04-15T04:28:47.343Z,23.22
2023-04-15T04:31:49.355Z,23.43
2023-04-15T04:34:51.352Z,22.95
2023-04-15T04:37:53.308Z,23.72
2023-04-15T04:40:55.354Z,23.02
2023-04-15T04:43:57.290Z,23.25
2023-04-15T04:46:59.348Z,23.07
2023-04-15T04:50:01.297Z,22.99
2023-04-15T04:53:03.345Z,23.03
2023-04-15T04:56:05.292Z,23.32
2023-04-15T04:59:07.348Z,22.23
2023-04-15T05:02:10.925Z,23.68
2023-04-15T05:05:12.517Z,23.05
2023-04-15T05:08:14.303Z,22.82
2023-04-15T05:11:16.336Z,23.18
2023-04-15T05:14:18.310Z,22.90
2023-04-15T05:17:20.363Z,23.04
2023-04-15T05:20:22.340Z,22.97
2023-04-15T05:23:49.351Z,23.12
2023-04-15T05:26:51.305Z,22.66
2023-04-15T05:29:53.349Z,22.28
2023-04-15T05:32:55.323Z,21.76
2023-04-15T05:35:57.351Z,22.29
2023-04-15T05:38:59.654Z,22.71
2023-04-15T05:42:01.388Z,22.58
2023-04-15T05:45:03.314Z,22.36
2023-04-15T05:48:07.342Z,22.14
2023-04-15T05:51:09.307Z,22.91
2023-04-15T05:54:11.346Z,22.67
2023-04-15T05:57:13.307Z,22.91
2023-04-15T06:00:15.328Z,22.19
2023-04-15T06:03:18.408Z,22.25
2023-04-15T06:06:20.634Z,23.06
2023-04-15T06:09:24.284Z,22.23
2023-04-15T06:12:26.332Z,22.70
2023-04-15T06:15:28.306Z,22.67
2023-04-15T06:18:30.352Z,22.56
2023-04-15T06:21:38.306Z,22.52
2023-04-15T06:24:40.346Z,22.02
2023-04-15T06:27:42.293Z,22.49
2023-04-15T06:30:45.385Z,22.25
2023-04-15T06:33:47.280Z,22.32
2023-04-15T06:36:50.420Z,22.01
2023-04-15T06:40:10.522Z,22.46
2023-04-15T06:42:59.333Z,22.05
2023-04-15T06:46:01.429Z,23.14
2023-04-15T06:49:03.548Z,23.25
2023-04-15T06:52:05.346Z,22.48
2023-04-15T06:55:07.325Z,23.19
2023-04-15T06:58:09.316Z,22.79
2023-04-15T07:01:11.335Z,23.15
2023-04-15T07:04:13.342Z,22.43
2023-04-15T07:07:15.549Z,22.51
2023-04-15T07:10:18.297Z,22.35
2023-04-15T07:13:20.327Z,22.26
2023-04-15T07:16:22.305Z,22.39
2023-04-15T07:19:24.333Z,22.04
2023-04-15T07:22:26.321Z,21.63
2023-04-15T07:25:28.332Z,21.53
2023-04-15T07:28:30.305Z,22.37
2023-04-15T07:31:32.472Z,21.58
2023-04-15T07:34:34.265Z,21.91
2023-04-15T07:37:36.327Z,22.27
2023-04-15T07:40:38.323Z,21.89
2023-04-15T07:43:40.320Z,22.08
2023-04-15T07:46:45.584Z,22.16
2023-04-15T07:49:47.342Z,22.84
2023-04-15T07:52:49.299Z,22.36
2023-04-15T07:55:51.333Z,22.60
2023-04-15T07:58:53.325Z,21.85
2023-04-15T08:01:55.378Z,21.94
2023-04-15T08:04:57.359Z,22.48
2023-04-15T08:07:59.455Z,22.09
2023-04-15T08:11:02.312Z,22.67
2023-04-15T08:14:04.320Z,22.83
2023-04-15T08:17:24.477Z,22.21
2023-04-15T08:20:13.303Z,22.02
2023-04-15T08:23:15.269Z,21.90
2023-04-15T08:26:17.302Z,22.24
2023-04-15T08:29:19.264Z,22.38
2023-04-15T08:32:21.335Z,22.54
2023-04-15T08:35:23.279Z,22.08
2023-04-15T08:38:25.301Z,23.09
2023-04-15T08:41:37.284Z,22.25
2023-04-15T08:44:40.290Z,21.93
2023-04-15T08:47:43.334Z,22.80
2023-04-15T08:50:46.309Z,22.47
2023-04-15T08:53:48.286Z,22.99
2023-04-15T08:56:50.331Z,22.60
2023-04-15T09:00:02.973Z,22.62
2023-04-15T09:03:05.358Z,22.89
2023-04-15T09:06:07.308Z,22.47
2023-04-15T09:09:09.367Z,22.07
2023-04-15T09:12:11.272Z,22.67
2023-04-15T09:15:18.302Z,22.31
2023-04-15T09:18:23.236Z,21.85
2023-04-15T09:21:30.314Z,22.82
2023-04-15T09:24:32.287Z,21.98
2023-04-15T09:27:34.312Z,21.95
2023-04-15T09:30:36.293Z,22.15
2023-04-15T09:33:38.304Z,21.69
2023-04-15T09:36:40.257Z,22.25
2023-04-15T09:39:42.319Z,21.89
2023-04-15T09:42:44.427Z,22.81
2023-04-15T09:45:46.330Z,21.90
2023-04-15T09:48:48.286Z,22.28
2023-04-15T09:52:03.944Z,22.68
2023-04-15T09:55:08.269Z,22.71
2023-04-15T09:58:10.319Z,22.00
2023-04-15T10:01:14.296Z,22.22
2023-04-15T10:04:19.452Z,21.67
2023-04-15T10:07:27.260Z,21.63
2023-04-15T10:10:35.339Z,22.36
2023-04-15T10:13:44.265Z,22.02
2023-04-15T10:16:46.287Z,22.31
2023-04-15T10:19:50.310Z,22.55
2023-04-15T10:22:52.295Z,22.75
2023-04-15T10:25:54.304Z,21.36
2023-04-15T10:28:57.279Z,21.27
2023-04-15T10:32:01.279Z,21.23
2023-04-15T10:35:05.295Z,22.92
2023-04-15T10:38:07.245Z,22.13
2023-04-15T10:41:25.308Z,21.99
2023-04-15T10:44:27.259Z,21.47
2023-04-15T10:47:30.368Z,21.57
2023-04-15T10:50:32.280Z,21.29
2023-04-15T10:53:40.284Z,21.48
2023-04-15T10:56:43.292Z,21.27
2023-04-15T10:59:45.314Z,21.16
2023-04-15T11:02:56.338Z,21.69
2023-04-15T11:06:05.325Z,21.91
2023-04-15T11:09:12.235Z,21.84
2023-04-15T11:12:23.343Z,21.40
2023-04-15T11:15:47.270Z,22.76
2023-04-15T11:18:49.381Z,21.76
2023-04-15T11:21:51.276Z,22.65
2023-04-15T11:25:02.313Z,22.69
2023-04-15T11:28:06.244Z,22.62
2023-04-15T11:31:08.295Z,23.23
2023-04-15T11:34:11.246Z,22.31
2023-04-15T11:37:13.282Z,22.35
2023-04-15T11:40:16.229Z,21.88
2023-04-15T11:43:28.291Z,22.35
2023-04-15T11:46:30.223Z,22.50
2023-04-15T11:49:48.529Z,21.63
2023-04-15T11:52:49.240Z,21.65
2023-04-15T11:55:55.290Z,22.22
2023-04-15T11:58:57.358Z,22.36
2023-04-15T12:01:59.346Z,22.24
2023-04-15T12:05:00.300Z,21.89
2023-04-15T12:08:13.280Z,22.49
2023-04-15T12:11:14.243Z,21.83
2023-04-15T12:14:21.421Z,21.90
2023-04-15T12:17:24.273Z,21.79
2023-04-15T12:20:25.274Z,22.49
2023-04-15T12:23:26.237Z,22.15
2023-04-15T12:26:27.267Z,22.25
2023-04-15T12:29:28.297Z,22.93
2023-04-15T12:32:30.290Z,22.71
2023-04-15T12:35:31.258Z,22.24
2023-04-15T12:38:34.019Z,22.74
2023-04-15T12:41:35.299Z,22.69
2023-04-15T12:44:37.297Z,21.97
2023-04-15T12:47:38.297Z,22.13
2023-04-15T12:50:39.281Z,22.33
2023-04-15T12:53:40.230Z,21.47
2023-04-15T12:56:41.305Z,21.47
2023-04-15T12:59:42.232Z,22.30
2023-04-15T13:02:43.469Z,22.04
2023-04-15T13:05:46.233Z,22.22
2023-04-15T13:08:57.318Z,21.64
2023-04-15T13:11:59.213Z,22.35
2023-04-15T13:15:00.469Z,22.39
2023-04-15T13:18:01.314Z,21.77
2023-04-15T13:21:05.162Z,21.79
2023-04-15T13:24:06.382Z,22.30
2023-04-15T13:27:07.556Z,21.17
2023-04-15T13:30:08.295Z,22.20
2023-04-15T13:33:09.263Z,22.12
2023-04-15T13:36:10.231Z,22.10
2023-04-15T13:39:12.266Z,21.25
2023-04-15T13:42:13.229Z,21.59
2023-04-15T13:45:14.263Z,21.70
2023-04-15T13:48:15.281Z,21.76
2023-04-15T13:51:16.267Z,21.59
2023-04-15T13:54:17.246Z,22.05
2023-04-15T13:57:18.269Z,21.17
2023-04-15T14:00:19.240Z,21.92
2023-04-15T14:03:20.353Z,21.79
2023-04-15T14:06:21.246Z,21.85
2023-04-15T14:09:24.981Z,21.11
2023-04-15T14:12:27.226Z,21.13
2023-04-15T14:15:28.323Z,21.12
2023-04-15T14:18:29.269Z,21.30
2023-04-15T14:21:30.261Z,21.23
2023-04-15T14:24:35.231Z,21.27
2023-04-15T14:27:36.306Z,22.15
2023-04-15T14:30:37.317Z,21.37
2023-04-15T14:33:44.266Z,22.03
2023-04-15T14:36:45.203Z,22.03
2023-04-15T14:39:46.283Z,22.29
2023-04-15T14:42:47.211Z,21.60
2023-04-15T14:45:48.346Z,21.09
2023-04-15T14:48:49.235Z,21.66
2023-04-15T14:52:15.282Z,21.18
2023-04-15T14:55:17.223Z,21.26
2023-04-15T14:58:18.292Z,21.47
2023-04-15T15:01:19.260Z,21.31
2023-04-15T15:04:20.372Z,21.17
2023-04-15T15:07:21.207Z,21.24
2023-04-15T15:10:32.704Z,21.27
2023-04-15T15:13:43.216Z,21.49
2023-04-15T15:16:44.597Z,21.14
2023-04-15T15:19:45.241Z,21.79
2023-04-15T15:22:46.239Z,21.32
2023-04-15T15:25:47.245Z,21.35
2023-04-15T15:29:13.259Z,21.16
2023-04-15T15:32:14.217Z,21.75
2023-04-15T15:35:15.255Z,21.67
2023-04-15T15:38:16.231Z,21.79
2023-04-15T15:41:17.254Z,20.82
2023-04-15T15:44:18.274Z,21.37
2023-04-15T15:47:20.277Z,21.69
2023-04-15T15:50:21.222Z,21.70
2023-04-15T15:53:27.249Z,21.67
2023-04-15T15:56:28.248Z,21.31
2023-04-15T15:59:30.266Z,21.16
2023-04-15T16:02:56.309Z,21.64
2023-04-15T16:05:52.252Z,21.63
2023-04-15T16:08:53.226Z,21.68
2023-04-15T16:11:54.251Z,21.49
2023-04-15T16:14:55.225Z,21.63
2023-04-15T16:17:56.424Z,21.46
2023-04-15T16:20:57.219Z,21.50
2023-04-15T16:24:23.258Z,21.98
2023-04-15T16:27:24.212Z,21.56
2023-04-15T16:30:25.290Z,21.65
2023-04-15T16:33:26.207Z,21.42
2023-04-15T16:36:27.393Z,21.98
2023-04-15T16:39:30.192Z,21.71
2023-04-15T16:42:31.260Z,21.65
2023-04-15T16:45:32.219Z,21.54
2023-04-15T16:48:33.376Z,21.67
2023-04-15T16:51:34.224Z,21.49
2023-04-15T16:54:36.231Z,21.76
2023-04-15T16:58:01.037Z,22.34
2023-04-15T17:00:58.302Z,22.46
2023-04-15T17:04:00.354Z,23.03
2023-04-15T17:07:01.245Z,22.99
2023-04-15T17:10:05.202Z,21.99
2023-04-15T17:13:06.242Z,22.52
2023-04-15T17:16:07.272Z,21.72
2023-04-15T17:19:08.440Z,22.11
2023-04-15T17:22:18.243Z,22.28
2023-04-15T17:25:19.224Z,21.69
2023-04-15T17:28:21.224Z,22.44
2023-04-15T17:31:25.275Z,22.89
2023-04-15T17:34:49.657Z,23.48
2023-04-15T17:38:12.247Z,21.47
2023-04-15T17:41:33.233Z,23.04
2023-04-15T17:44:54.235Z,23.10
2023-04-15T17:48:15.245Z,23.12
2023-04-15T17:51:36.254Z,22.33
2023-04-15T17:54:57.205Z,21.42
2023-04-15T17:58:18.226Z,22.85
2023-04-15T18:01:39.304Z,21.95
2023-04-15T18:05:02.512Z,22.86
2023-04-15T18:08:23.210Z,21.34
2023-04-15T18:11:45.260Z,22.26
2023-04-15T18:15:06.214Z,23.09
2023-04-15T18:18:27.248Z,22.46
2023-04-15T18:21:21.339Z,22.26
2023-04-15T18:24:15.317Z,23.11
2023-04-15T18:27:16.226Z,22.17
2023-04-15T18:30:17.234Z,22.63
2023-04-15T18:33:18.194Z,23.13
2023-04-15T18:36:19.221Z,21.98
2023-04-15T18:39:20.199Z,22.41
2023-04-15T18:42:21.228Z,23.03
2023-04-15T18:45:22.197Z,22.48
2023-04-15T18:48:24.253Z,21.58
2023-04-15T18:51:25.174Z,22.40
2023-04-15T18:54:26.265Z,23.36
2023-04-15T18:57:28.792Z,22.91
2023-04-15T19:00:33.234Z,23.69
2023-04-15T19:03:34.259Z,21.20
2023-04-15T19:06:35.235Z,22.57
2023-04-15T19:09:36.186Z,22.89
2023-04-15T19:12:37.254Z,22.59
2023-04-15T19:15:38.208Z,22.47
2023-04-15T19:18:40.251Z,22.86
2023-04-15T19:21:41.196Z,21.95
2023-04-15T19:24:42.425Z,22.49
2023-04-15T19:27:45.187Z,22.81
2023-04-15T19:30:46.260Z,22.53
2023-04-15T19:33:48.262Z,22.76
2023-04-15T19:36:49.229Z,22.41
2023-04-15T19:39:50.204Z,22.95
2023-04-15T19:42:51.241Z,22.16
2023-04-15T19:45:53.245Z,22.60
2023-04-15T19:48:54.260Z,22.30
2023-04-15T19:51:55.199Z,22.30
2023-04-15T19:54:56.206Z,22.36
2023-04-15T19:58:03.800Z,22.72
2023-04-15T20:01:04.287Z,21.21
2023-04-15T20:04:06.619Z,22.30
2023-04-15T20:07:07.322Z,22.51
2023-04-15T20:10:12.461Z,21.82
2023-04-15T20:13:14.220Z,22.31
2023-04-15T20:16:15.213Z,22.46
2023-04-15T20:19:16.248Z,22.97
2023-04-15T20:22:17.173Z,22.11
2023-04-15T20:25:18.314Z,22.51
2023-04-15T20:28:19.171Z,21.57
2023-04-15T20:31:20.310Z,22.00
2023-04-15T20:34:21.192Z,22.56
2023-04-15T20:37:22.264Z,22.84
2023-04-15T20:40:23.189Z,22.07
2023-04-15T20:43:24.209Z,21.92
2023-04-15T20:46:27.356Z,22.85
2023-04-15T20:49:28.232Z,23.59
2023-04-15T20:52:29.172Z,22.88
2023-04-15T20:55:30.861Z,21.89
2023-04-15T20:58:33.171Z,22.75
2023-04-15T21:01:34.273Z,23.26
2023-04-15T21:04:35.175Z,23.41
2023-04-15T21:07:36.232Z,23.67
2023-04-15T21:10:41.172Z,22.41
2023-04-15T21:13:42.293Z,22.67
2023-04-15T21:16:43.319Z,22.67
2023-04-15T21:19:44.208Z,22.77
2023-04-15T21:22:45.227Z,21.33
2023-04-15T21:25:46.260Z,22.85
2023-04-15T21:28:47.185Z,23.17
2023-04-15T21:31:48.227Z,23.35
2023-04-15T21:34:49.182Z,23.50
2023-04-15T21:37:51.205Z,22.20
2023-04-15T21:40:52.183Z,23.24
2023-04-15T21:43:53.246Z,22.76
2023-04-15T21:46:54.255Z,22.47
2023-04-15T21:49:55.206Z,21.97
2023-04-15T21:52:56.174Z,22.83
2023-04-15T21:55:57.232Z,23.38
2023-04-15T21:58:58.185Z,23.58
2023-04-15T22:01:59.395Z,23.18
2023-04-15T22:05:00.180Z,22.65
2023-04-15T22:08:05.214Z,22.88
2023-04-15T22:11:06.123Z,22.77
2023-04-15T22:14:07.237Z,23.23
2023-04-15T22:17:08.143Z,22.65
2023-04-15T22:20:09.187Z,22.80
2023-04-15T22:23:14.197Z,23.03
2023-04-15T22:26:15.366Z,22.93
2023-04-15T22:29:16.185Z,22.10
2023-04-15T22:32:23.244Z,22.74
2023-04-15T22:35:24.381Z,22.54
2023-04-15T22:38:25.201Z,23.02
2023-04-15T22:41:26.150Z,22.67
2023-04-15T22:44:27.213Z,22.58
2023-04-15T22:47:28.160Z,22.39
2023-04-15T22:50:29.184Z,22.28
2023-04-15T22:53:30.155Z,22.08
2023-04-15T22:56:34.192Z,22.31
2023-04-15T22:59:35.161Z,22.23
2023-04-15T23:02:36.272Z,22.38
2023-04-15T23:05:37.177Z,22.55
2023-04-15T23:08:38.331Z,22.44
2023-04-15T23:11:39.188Z,22.61
2023-04-15T23:14:42.194Z,22.74
2023-04-15T23:17:43.180Z,22.52
2023-04-15T23:20:44.202Z,22.43
2023-04-15T23:23:45.132Z,22.08
2023-04-15T23:26:46.374Z,22.47
2023-04-15T23:29:47.441Z,22.29
2023-04-15T23:32:48.236Z,22.60
2023-04-15T23:35:50.150Z,22.94
2023-04-15T23:38:51.195Z,22.49
2023-04-15T23:41:52.150Z,22.54
2023-04-15T23:44:53.221Z,22.26
2023-04-15T23:47:54.197Z,22.65
2023-04-15T23:50:55.191Z,22.65
2023-04-15T23:53:56.187Z,22.71
2023-04-15T23:56:57.175Z,22.54
2023-04-15T23:59:59.161Z,22.66
